Radcliff, Ohio
Current Conditions -  °F | °C
As of 9:15 PM on Friday 31 Oct 2014 (Local Time) from KUNI Reporting Station
Drizzle Drizzle  
Wind Chill: 38°   Ceiling: 2400
Heat Index: 41°   Visibility: 10mi
Dew Point: 38°   Wind: 5mph
Humidity: 91%   Direction: 300°WNW
Pressure: 29.89"   Gusts: NA
Location:  39.1198°N, 82.3705°W
Report Text: KUNI 010115Z AUTO 30004KT 10SM DZ SCT020 BKN024 OVC029 05/04 A2989 RMK AO2 T00500036
Loading
Personal Weather Stations






























Interactive Weather Map
Tropical Storm Tracking
New forecast layout! Learn more

10-Day Weather Forecast

Advertisements
Track Severe Weather on mobile